createdAt,value
2022-09-10T00:01:38.472Z,3.05
2022-09-10T00:04:13.554Z,2.58
2022-09-10T00:06:45.466Z,3.15
2022-09-10T00:09:16.941Z,3.90
2022-09-10T00:11:45.492Z,3.67
2022-09-10T00:14:19.852Z,3.85
2022-09-10T00:16:48.139Z,3.20
2022-09-10T00:19:16.958Z,2.75
2022-09-10T00:21:45.720Z,3.33
2022-09-10T00:24:14.473Z,2.78
2022-09-10T00:26:42.561Z,3.45
2022-09-10T00:29:13.981Z,3.28
2022-09-10T00:31:42.081Z,3.17
2022-09-10T00:34:11.902Z,3.80
2022-09-10T00:36:42.122Z,3.15
2022-09-10T00:39:13.969Z,3.10
2022-09-10T00:41:44.103Z,2.40
2022-09-10T00:44:39.724Z,3.00
2022-09-10T00:47:29.489Z,2.72
2022-09-10T00:50:05.049Z,2.90
2022-09-10T00:52:39.388Z,2.97
2022-09-10T00:55:09.503Z,3.72
2022-09-10T00:57:41.620Z,2.80
2022-09-10T01:00:13.038Z,3.97
2022-09-10T01:02:42.266Z,3.80
2022-09-10T01:05:13.443Z,5.28
2022-09-10T01:07:44.665Z,4.13
2022-09-10T01:10:18.935Z,3.80
2022-09-10T01:13:15.657Z,4.47
2022-09-10T01:16:13.871Z,4.10
2022-09-10T01:18:59.318Z,3.67
2022-09-10T01:21:37.761Z,3.67
2022-09-10T01:24:34.639Z,4.00
2022-09-10T01:27:08.358Z,4.10
2022-09-10T01:29:45.707Z,3.80
2022-09-10T01:32:18.289Z,3.92
2022-09-10T01:35:01.716Z,3.92
2022-09-10T01:37:36.331Z,4.37
2022-09-10T01:40:05.273Z,3.42
2022-09-10T01:42:40.761Z,4.03
2022-09-10T01:45:12.006Z,3.30
2022-09-10T01:48:04.593Z,3.67
2022-09-10T01:50:51.101Z,3.47
2022-09-10T01:53:42.068Z,2.90
2022-09-10T01:56:40.809Z,3.40
2022-09-10T01:59:34.804Z,3.15
2022-09-10T02:02:14.075Z,3.40
2022-09-10T02:04:43.158Z,3.35
2022-09-10T02:07:13.020Z,3.55
2022-09-10T02:09:41.451Z,3.35
2022-09-10T02:12:17.875Z,3.20
2022-09-10T02:14:56.377Z,4.18
2022-09-10T02:17:31.641Z,3.67
2022-09-10T02:20:06.410Z,3.97
2022-09-10T02:22:36.585Z,3.90
2022-09-10T02:25:05.679Z,4.85
2022-09-10T02:27:33.758Z,4.50
2022-09-10T02:30:01.860Z,3.85
2022-09-10T02:32:29.874Z,4.63
2022-09-10T02:34:57.894Z,5.38
2022-09-10T02:37:29.632Z,5.47
2022-09-10T02:39:57.761Z,5.18
2022-09-10T02:42:26.639Z,4.90
2022-09-10T02:44:54.696Z,5.22
2022-09-10T02:47:23.443Z,5.00
2022-09-10T02:49:51.536Z,4.70
2022-09-10T02:52:22.466Z,5.78
2022-09-10T02:54:50.484Z,6.63
2022-09-10T02:57:20.827Z,6.25
2022-09-10T02:59:51.441Z,5.93
2022-09-10T03:02:19.491Z,5.20
2022-09-10T03:04:47.727Z,4.88
2022-09-10T03:07:18.156Z,4.95
2022-09-10T03:09:46.428Z,5.15
2022-09-10T03:12:15.196Z,5.38
2022-09-10T03:14:43.945Z,5.72
2022-09-10T03:17:12.055Z,4.97
2022-09-10T03:19:40.079Z,5.85
2022-09-10T03:22:08.246Z,5.65
2022-09-10T03:24:36.609Z,6.20
2022-09-10T03:27:04.744Z,6.65
2022-09-10T03:29:32.758Z,6.90
2022-09-10T03:32:01.496Z,5.75
2022-09-10T03:34:29.510Z,5.97
2022-09-10T03:36:57.559Z,5.85
2022-09-10T03:39:27.982Z,5.60
2022-09-10T03:41:58.971Z,5.55
2022-09-10T03:44:26.971Z,5.97
2022-09-10T03:46:55.013Z,6.13
2022-09-10T03:49:25.848Z,6.68
2022-09-10T03:51:56.943Z,5.72
2022-09-10T03:54:24.975Z,5.20
2022-09-10T03:56:52.966Z,5.72
2022-09-10T03:59:23.890Z,6.03
2022-09-10T04:01:51.937Z,4.95
2022-09-10T04:04:22.932Z,6.00
2022-09-10T04:06:54.422Z,5.85
2022-09-10T04:09:25.286Z,5.35
2022-09-10T04:11:55.665Z,5.93
2022-09-10T04:14:23.721Z,6.80
2022-09-10T04:16:56.826Z,5.53
2022-09-10T04:19:30.109Z,6.10
2022-09-10T04:22:00.469Z,4.72
2022-09-10T04:24:28.750Z,5.85
2022-09-10T04:26:56.788Z,5.32
2022-09-10T04:29:25.349Z,5.80
2022-09-10T04:31:53.394Z,6.20
2022-09-10T04:34:21.737Z,5.88
2022-09-10T04:36:50.055Z,6.25
2022-09-10T04:39:18.055Z,5.55
2022-09-10T04:41:46.081Z,6.15
2022-09-10T04:44:14.146Z,5.82
2022-09-10T04:46:44.756Z,5.63
2022-09-10T04:49:12.839Z,5.63
2022-09-10T04:51:43.733Z,5.80
2022-09-10T04:54:12.994Z,6.45
2022-09-10T04:56:41.349Z,5.57
2022-09-10T04:59:12.219Z,4.80
2022-09-10T05:01:40.276Z,4.85
2022-09-10T05:04:08.413Z,4.85
2022-09-10T05:06:39.378Z,4.95
2022-09-10T05:09:07.420Z,4.88
2022-09-10T05:11:38.100Z,5.72
2022-09-10T05:14:06.196Z,6.50
2022-09-10T05:16:34.356Z,5.93
2022-09-10T05:19:02.341Z,6.88
2022-09-10T05:21:30.468Z,5.95
2022-09-10T05:23:58.938Z,5.30
2022-09-10T05:26:29.285Z,6.70
2022-09-10T05:28:57.324Z,7.40
2022-09-10T05:31:25.392Z,6.90
2022-09-10T05:33:53.492Z,7.00
2022-09-10T05:36:24.176Z,7.93
2022-09-10T05:38:52.178Z,6.90
2022-09-10T05:41:22.992Z,6.93
2022-09-10T05:43:51.085Z,6.20
2022-09-10T05:46:19.115Z,7.40
2022-09-10T05:48:52.371Z,6.90
2022-09-10T05:51:22.999Z,8.37
2022-09-10T05:53:51.074Z,7.40
2022-09-10T05:56:21.528Z,6.25
2022-09-10T05:58:49.644Z,6.70
2022-09-10T06:01:20.794Z,6.50
2022-09-10T06:03:48.797Z,6.97
2022-09-10T06:06:19.739Z,8.05
2022-09-10T06:08:52.484Z,6.88
2022-09-10T06:11:20.624Z,7.07
2022-09-10T06:13:49.093Z,7.13
2022-09-10T06:16:18.296Z,6.85
2022-09-10T06:18:48.765Z,8.02
2022-09-10T06:21:19.202Z,6.85
2022-09-10T06:23:47.825Z,6.40
2022-09-10T06:26:17.769Z,6.13
2022-09-10T06:28:45.829Z,6.95
2022-09-10T06:31:14.520Z,6.53
2022-09-10T06:33:42.558Z,6.90
2022-09-10T06:36:11.476Z,6.43
2022-09-10T06:38:39.680Z,6.72
2022-09-10T06:41:12.417Z,6.68
2022-09-10T06:43:40.871Z,6.13
2022-09-10T06:46:40.762Z,7.00
2022-09-10T06:49:00.652Z,6.80
2022-09-10T06:51:31.470Z,6.85
2022-09-10T06:53:59.532Z,6.18
2022-09-10T06:56:27.732Z,5.82
2022-09-10T06:58:59.230Z,7.65
2022-09-10T07:01:29.727Z,6.63
2022-09-10T07:03:59.867Z,6.32
2022-09-10T07:06:29.359Z,6.32
2022-09-10T07:08:58.429Z,6.32
2022-09-10T07:11:27.841Z,6.85
2022-09-10T07:13:55.967Z,6.95
2022-09-10T07:16:28.776Z,6.53
2022-09-10T07:19:01.447Z,6.05
2022-09-10T07:21:31.995Z,7.05
2022-09-10T07:24:01.374Z,6.82
2022-09-10T07:26:33.843Z,6.95
2022-09-10T07:29:01.978Z,7.68
2022-09-10T07:31:32.976Z,6.85
2022-09-10T07:34:04.729Z,6.55
2022-09-10T07:36:33.390Z,6.93
2022-09-10T07:39:02.169Z,7.40
2022-09-10T07:41:30.939Z,6.95
2022-09-10T07:43:59.493Z,7.78
2022-09-10T07:46:29.877Z,7.00
2022-09-10T07:49:00.568Z,7.25
2022-09-10T07:51:31.480Z,6.82
2022-09-10T07:54:00.708Z,7.68
2022-09-10T07:56:28.819Z,7.65
2022-09-10T07:58:57.149Z,8.38
2022-09-10T08:01:25.363Z,7.93
2022-09-10T08:03:57.544Z,7.15
2022-09-10T08:06:28.132Z,6.88
2022-09-10T08:08:58.510Z,7.32
2022-09-10T08:11:26.796Z,6.80
2022-09-10T08:13:55.357Z,6.72
2022-09-10T08:16:25.140Z,7.53
2022-09-10T08:18:54.930Z,7.53
2022-09-10T08:21:23.031Z,6.75
2022-09-10T08:23:52.336Z,6.32
2022-09-10T08:26:21.552Z,8.07
2022-09-10T08:28:49.626Z,7.25
2022-09-10T08:31:20.687Z,6.13
2022-09-10T08:33:51.125Z,6.88
2022-09-10T08:36:19.645Z,6.90
2022-09-10T08:38:48.071Z,5.97
2022-09-10T08:41:58.932Z,6.85
2022-09-10T08:44:41.601Z,7.53
2022-09-10T08:47:21.478Z,6.30
2022-09-10T08:49:57.695Z,7.18
2022-09-10T08:52:41.769Z,6.68
2022-09-10T08:55:18.872Z,6.65
2022-09-10T08:58:20.088Z,5.85
2022-09-10T09:00:52.455Z,6.72
2022-09-10T09:03:38.836Z,6.65
2022-09-10T09:06:15.408Z,6.25
2022-09-10T09:08:49.765Z,6.45
2022-09-10T09:11:38.849Z,5.90
2022-09-10T09:14:16.491Z,6.40
2022-09-10T09:17:23.664Z,6.53
2022-09-10T09:20:03.448Z,6.30
2022-09-10T09:22:45.397Z,6.85
2022-09-10T09:25:48.428Z,7.18
2022-09-10T09:28:27.588Z,5.43
2022-09-10T09:30:58.436Z,6.47
2022-09-10T09:33:28.954Z,6.80
2022-09-10T09:35:58.236Z,6.75
2022-09-10T09:38:31.770Z,6.80
2022-09-10T09:41:03.686Z,6.47
2022-09-10T09:43:57.108Z,7.03
2022-09-10T09:46:25.310Z,6.07
2022-09-10T09:48:59.223Z,7.38
2022-09-10T09:51:30.564Z,8.45
2022-09-10T09:54:39.235Z,8.25
2022-09-10T09:56:55.209Z,6.45
2022-09-10T09:59:29.389Z,7.10
2022-09-10T10:02:06.791Z,6.55
2022-09-10T10:04:37.940Z,6.63
2022-09-10T10:07:08.536Z,6.90
2022-09-10T10:09:43.872Z,6.72
2022-09-10T10:12:21.884Z,6.25
2022-09-10T10:14:50.297Z,6.10
2022-09-10T10:17:41.129Z,6.07
2022-09-10T10:20:18.349Z,6.03
2022-09-10T10:22:48.868Z,5.75
2022-09-10T10:25:38.636Z,6.05
2022-09-10T10:28:27.237Z,7.45
2022-09-10T10:30:57.378Z,6.47
2022-09-10T10:33:30.150Z,6.85
2022-09-10T10:36:31.851Z,7.07
2022-09-10T10:39:11.743Z,7.40
2022-09-10T10:42:08.317Z,7.53
2022-09-10T10:44:59.215Z,6.47
2022-09-10T10:48:08.427Z,7.43
2022-09-10T10:50:52.687Z,6.90
2022-09-10T10:53:47.152Z,7.50
2022-09-10T10:56:36.221Z,7.60
2022-09-10T10:59:23.158Z,7.32
2022-09-10T11:02:15.801Z,7.10
2022-09-10T11:04:51.041Z,6.40
2022-09-10T11:07:41.317Z,6.75
2022-09-10T11:10:21.658Z,6.38
2022-09-10T11:13:02.782Z,5.45
2022-09-10T11:16:25.510Z,6.90
2022-09-10T11:19:07.500Z,6.38
2022-09-10T11:21:44.253Z,7.47
2022-09-10T11:24:40.443Z,7.60
2022-09-10T11:27:29.585Z,8.45
2022-09-10T11:30:00.216Z,6.75
2022-09-10T11:32:46.107Z,7.10
2022-09-10T11:35:29.114Z,6.93
2022-09-10T11:38:14.719Z,7.32
2022-09-10T11:40:45.553Z,8.00
2022-09-10T11:43:43.058Z,7.55
2022-09-10T11:46:40.035Z,7.63
2022-09-10T11:49:13.204Z,8.52
2022-09-10T11:51:42.160Z,5.88
2022-09-10T11:54:21.631Z,6.90
2022-09-10T11:57:22.879Z,6.90
2022-09-10T12:00:11.977Z,7.63
2022-09-10T12:03:16.324Z,7.43
2022-09-10T12:06:05.906Z,7.82
2022-09-10T12:08:53.042Z,7.97
2022-09-10T12:11:24.049Z,8.50
2022-09-10T12:13:52.297Z,7.72
2022-09-10T12:16:27.991Z,7.15
2022-09-10T12:18:58.709Z,7.45
2022-09-10T12:21:40.023Z,6.85
2022-09-10T12:24:30.923Z,6.65
2022-09-10T12:27:05.238Z,7.85
2022-09-10T12:29:41.782Z,7.60
2022-09-10T12:32:22.156Z,6.15
2022-09-10T12:35:42.185Z,6.50
2022-09-10T12:38:47.135Z,7.03
2022-09-10T12:44:23.705Z,6.38
2022-09-10T12:47:17.523Z,7.07
2022-09-10T12:49:53.240Z,5.68
2022-09-10T12:52:50.596Z,6.68
2022-09-10T12:55:37.516Z,7.68
2022-09-10T12:58:41.464Z,6.70
2022-09-10T13:01:27.108Z,6.28
2022-09-10T13:04:00.433Z,7.10
2022-09-10T13:06:41.879Z,5.18
2022-09-10T13:09:32.183Z,7.28
2022-09-10T13:12:07.337Z,6.85
2022-09-10T13:14:39.462Z,7.72
2022-09-10T13:17:27.518Z,8.02
2022-09-10T13:20:13.143Z,7.60
2022-09-10T13:23:01.262Z,7.97
2022-09-10T13:25:42.852Z,7.45
2022-09-10T13:28:42.825Z,7.68
2022-09-10T13:31:10.840Z,7.43
2022-09-10T13:33:51.045Z,7.75
2022-09-10T13:36:37.332Z,8.07
2022-09-10T13:39:19.935Z,8.20
2022-09-10T13:41:53.536Z,7.55
2022-09-10T13:44:51.508Z,6.93
2022-09-10T13:47:40.976Z,7.30
2022-09-10T13:50:52.143Z,7.80
2022-09-10T13:53:21.240Z,7.13
2022-09-10T13:56:05.965Z,7.43
2022-09-10T13:58:43.445Z,7.60
2022-09-10T14:01:13.949Z,7.03
2022-09-10T14:03:45.253Z,7.15
2022-09-10T14:06:25.137Z,7.10
2022-09-10T14:08:58.084Z,9.23
2022-09-10T14:11:37.321Z,7.82
2022-09-10T14:14:05.324Z,8.23
2022-09-10T14:16:58.222Z,7.40
2022-09-10T14:19:40.651Z,7.97
2022-09-10T14:22:12.919Z,8.18
2022-09-10T14:24:40.922Z,9.68
2022-09-10T14:27:34.666Z,7.47
2022-09-10T14:30:24.250Z,8.30
2022-09-10T14:32:53.481Z,9.18
2022-09-10T14:35:43.363Z,8.05
2022-09-10T14:38:35.011Z,8.68
2022-09-10T14:41:08.824Z,7.88
2022-09-10T14:46:10.811Z,7.75
2022-09-10T14:48:43.559Z,7.30
2022-09-10T14:51:17.828Z,7.57
2022-09-10T14:53:52.533Z,7.95
2022-09-10T14:56:33.959Z,7.55
2022-09-10T14:59:05.463Z,7.43
2022-09-10T15:01:33.479Z,7.72
2022-09-10T15:04:04.401Z,7.22
2022-09-10T15:06:32.455Z,7.00
2022-09-10T15:09:02.818Z,7.88
2022-09-10T15:11:30.919Z,7.55
2022-09-10T15:13:59.026Z,7.93
2022-09-10T15:16:30.057Z,7.18
2022-09-10T15:18:58.066Z,8.38
2022-09-10T15:21:26.313Z,7.93
2022-09-10T15:23:54.339Z,8.82
2022-09-10T15:26:25.366Z,7.78
2022-09-10T15:28:53.328Z,7.60
2022-09-10T15:31:24.443Z,7.15
2022-09-10T15:33:52.517Z,7.22
2022-09-10T15:36:20.505Z,8.45
2022-09-10T15:38:50.837Z,8.05
2022-09-10T15:41:21.706Z,7.93
2022-09-10T15:43:49.782Z,8.50
2022-09-10T15:46:18.766Z,7.55
2022-09-10T15:48:50.007Z,7.13
2022-09-10T15:51:22.121Z,7.78
2022-09-10T15:53:52.230Z,8.10
2022-09-10T15:56:21.737Z,8.18
2022-09-10T15:58:55.014Z,7.57
2022-09-10T16:01:24.538Z,7.43
2022-09-10T16:03:55.442Z,7.93
2022-09-10T16:06:25.883Z,7.90
2022-09-10T16:08:56.414Z,8.13
2022-09-10T16:11:25.845Z,7.65
2022-09-10T16:13:54.028Z,7.20
2022-09-10T16:16:24.001Z,7.93
2022-09-10T16:18:54.680Z,8.23
2022-09-10T16:21:28.541Z,7.88
2022-09-10T16:24:00.189Z,8.35
2022-09-10T16:26:34.169Z,8.02
2022-09-10T16:29:05.487Z,7.63
2022-09-10T16:31:36.333Z,7.63
2022-09-10T16:34:06.835Z,6.97
2022-09-10T16:36:38.520Z,7.70
2022-09-10T16:39:09.913Z,6.95
2022-09-10T16:41:38.087Z,7.28
2022-09-10T16:44:09.299Z,7.32
2022-09-10T16:46:38.111Z,7.13
2022-09-10T16:49:07.056Z,7.57
2022-09-10T16:51:37.671Z,7.15
2022-09-10T16:54:07.856Z,7.55
2022-09-10T16:56:49.047Z,6.47
2022-09-10T16:59:20.273Z,7.45
2022-09-10T17:01:49.682Z,5.93
2022-09-10T17:04:23.376Z,5.47
2022-09-10T17:06:55.719Z,6.47
2022-09-10T17:09:23.758Z,6.95
2022-09-10T17:11:51.824Z,5.82
2022-09-10T17:14:20.009Z,5.90
2022-09-10T17:16:48.158Z,5.47
2022-09-10T17:19:24.348Z,6.38
2022-09-10T17:21:54.497Z,5.78
2022-09-10T17:24:27.303Z,5.68
2022-09-10T17:26:55.562Z,5.75
2022-09-10T17:29:25.527Z,6.35
2022-09-10T17:31:57.497Z,5.30
2022-09-10T17:34:26.302Z,5.32
2022-09-10T17:36:54.726Z,5.65
2022-09-10T17:39:22.804Z,5.75
2022-09-10T17:41:50.861Z,6.00
2022-09-10T17:44:21.771Z,5.85
2022-09-10T17:46:49.942Z,5.90
2022-09-10T17:49:20.381Z,6.07
2022-09-10T17:51:48.362Z,6.03
2022-09-10T17:54:16.380Z,6.05
2022-09-10T17:56:44.628Z,5.70
2022-09-10T17:59:14.247Z,6.22
2022-09-10T18:01:42.990Z,6.13
2022-09-10T18:04:12.676Z,5.68
2022-09-10T18:06:44.289Z,6.15
2022-09-10T18:09:16.829Z,5.60
2022-09-10T18:11:45.182Z,6.03
2022-09-10T18:14:17.490Z,5.63
2022-09-10T18:16:46.394Z,6.20
2022-09-10T18:19:16.581Z,5.57
2022-09-10T18:21:48.401Z,5.50
2022-09-10T18:24:19.219Z,5.28
2022-09-10T18:26:52.009Z,5.35
2022-09-10T18:29:29.527Z,5.88
2022-09-10T18:31:59.844Z,5.50
2022-09-10T18:34:31.534Z,5.53
2022-09-10T18:37:03.969Z,6.15
2022-09-10T18:39:33.261Z,6.57
2022-09-10T18:42:01.766Z,5.05
2022-09-10T18:44:34.443Z,5.05
2022-09-10T18:47:02.538Z,5.90
2022-09-10T18:49:30.592Z,6.00
2022-09-10T18:51:58.767Z,5.78
2022-09-10T18:54:27.598Z,6.60
2022-09-10T18:56:58.168Z,6.10
2022-09-10T18:59:26.651Z,5.15
2022-09-10T19:01:55.521Z,5.15
2022-09-10T19:04:27.224Z,5.40
2022-09-10T19:06:58.565Z,5.80
2022-09-10T19:09:31.334Z,5.68
2022-09-10T19:12:00.695Z,5.68
2022-09-10T19:14:32.431Z,4.78
2022-09-10T19:17:01.529Z,5.35
2022-09-10T19:19:34.733Z,6.35
2022-09-10T19:22:05.021Z,5.73
2022-09-10T19:24:54.926Z,4.65
2022-09-10T19:27:24.833Z,5.70
2022-09-10T19:29:52.917Z,5.55
2022-09-10T19:32:20.966Z,5.40
2022-09-10T19:34:52.789Z,5.80
2022-09-10T19:37:23.134Z,5.20
2022-09-10T19:39:53.817Z,5.70
2022-09-10T19:42:21.908Z,5.80
2022-09-10T19:44:51.196Z,5.85
2022-09-10T19:47:19.245Z,5.72
2022-09-10T19:49:47.284Z,4.97
2022-09-10T19:52:15.557Z,5.32
2022-09-10T19:54:43.596Z,5.32
2022-09-10T19:57:14.093Z,5.55
2022-09-10T19:59:42.185Z,5.72
2022-09-10T20:02:13.765Z,5.63
2022-09-10T20:04:41.826Z,4.82
2022-09-10T20:07:12.736Z,5.68
2022-09-10T20:09:40.723Z,5.57
2022-09-10T20:12:08.926Z,5.05
2022-09-10T20:14:36.983Z,5.43
2022-09-10T20:17:05.218Z,5.70
2022-09-10T20:19:33.326Z,4.68
2022-09-10T20:22:02.596Z,5.28
2022-09-10T20:24:30.660Z,5.88
2022-09-10T20:26:58.739Z,5.95
2022-09-10T20:29:29.678Z,5.50
2022-09-10T20:32:00.783Z,5.45
2022-09-10T20:34:28.793Z,5.22
2022-09-10T20:36:59.080Z,4.95
2022-09-10T20:39:27.121Z,4.95
2022-09-10T20:41:55.183Z,6.10
2022-09-10T20:44:23.203Z,4.78
2022-09-10T20:46:54.124Z,5.20
2022-09-10T20:49:24.875Z,5.00
2022-09-10T20:51:52.935Z,5.20
2022-09-10T20:54:20.995Z,4.68
2022-09-10T20:56:49.350Z,4.88
2022-09-10T20:59:18.789Z,4.88
2022-09-10T21:01:47.362Z,5.20
2022-09-10T21:04:16.223Z,4.68
2022-09-10T21:06:44.559Z,5.28
2022-09-10T21:09:13.501Z,4.70
2022-09-10T21:11:41.690Z,3.63
2022-09-10T21:14:10.488Z,4.47
2022-09-10T21:16:43.515Z,4.30
2022-09-10T21:19:16.915Z,4.70
2022-09-10T21:21:48.608Z,4.78
2022-09-10T21:24:21.285Z,4.80
2022-09-10T21:26:50.327Z,5.70
2022-09-10T21:29:22.113Z,5.97
2022-09-10T21:31:50.377Z,6.70
2022-09-10T21:34:18.424Z,5.55
2022-09-10T21:36:49.299Z,5.80
2022-09-10T21:39:18.940Z,5.80
2022-09-10T21:41:53.412Z,5.65
2022-09-10T21:44:23.465Z,6.78
2022-09-10T21:46:57.149Z,6.28
2022-09-10T21:49:27.856Z,6.05
2022-09-10T21:51:55.943Z,5.70
2022-09-10T21:54:26.308Z,6.32
2022-09-10T21:56:54.398Z,6.68
2022-09-10T21:59:24.764Z,7.50
2022-09-10T22:01:53.132Z,8.10
2022-09-10T22:04:23.909Z,8.68
2022-09-10T22:06:54.690Z,7.45
2022-09-10T22:09:23.008Z,8.32
2022-09-10T22:11:54.539Z,8.98
2022-09-10T22:14:26.529Z,8.40
2022-09-10T22:16:54.862Z,7.32
2022-09-10T22:19:25.600Z,7.53
2022-09-10T22:21:54.274Z,8.63
2022-09-10T22:24:22.527Z,8.93
2022-09-10T22:26:51.051Z,8.45
2022-09-10T22:29:22.971Z,9.55
2022-09-10T22:31:50.964Z,9.98
2022-09-10T22:34:19.852Z,8.30
2022-09-10T22:36:48.783Z,7.25
2022-09-10T22:39:21.729Z,8.13
2022-09-10T22:41:51.219Z,9.63
2022-09-10T22:44:24.261Z,9.13
2022-09-10T22:46:52.318Z,9.00
2022-09-10T22:49:20.317Z,8.85
2022-09-10T22:51:51.040Z,8.45
2022-09-10T22:54:19.055Z,8.10
2022-09-10T22:56:47.084Z,9.15
2022-09-10T22:59:15.923Z,7.13
2022-09-10T23:01:44.915Z,7.75
2022-09-10T23:04:12.937Z,7.90
2022-09-10T23:06:43.353Z,7.95
2022-09-10T23:09:17.998Z,8.32
2022-09-10T23:11:46.755Z,7.55
2022-09-10T23:14:19.746Z,7.90
2022-09-10T23:16:49.977Z,7.63
2022-09-10T23:19:21.390Z,8.57
2022-09-10T23:21:52.765Z,7.10
2022-09-10T23:24:23.332Z,6.75
2022-09-10T23:26:54.610Z,6.90
2022-09-10T23:29:22.702Z,8.13
2022-09-10T23:31:51.404Z,7.38
2022-09-10T23:34:23.629Z,8.43
2022-09-10T23:36:52.689Z,7.47
2022-09-10T23:39:23.153Z,6.97
2022-09-10T23:41:54.317Z,6.85
2022-09-10T23:44:27.485Z,6.68
2022-09-10T23:46:56.024Z,6.88
2022-09-10T23:49:24.306Z,5.88
2022-09-10T23:51:52.385Z,6.07
2022-09-10T23:54:20.407Z,5.53
2022-09-10T23:56:48.466Z,5.93
2022-09-10T23:59:19.062Z,5.70
